sensor_id;sensor_type;location;lat;lon;timestamp;temperature;humidity
25949;DHT22;13961;51.178;4.448;2022-07-17T00:00:46;17.00;99.90
25949;DHT22;13961;51.178;4.448;2022-07-17T00:03:14;16.90;99.90
25949;DHT22;13961;51.178;4.448;2022-07-17T00:05:42;16.90;99.90
25949;DHT22;13961;51.178;4.448;2022-07-17T00:08:09;16.90;99.90
25949;DHT22;13961;51.178;4.448;2022-07-17T00:10:37;16.90;99.90
25949;DHT22;13961;51.178;4.448;2022-07-17T00:13:03;16.90;99.90
25949;DHT22;13961;51.178;4.448;2022-07-17T00:15:29;16.90;99.90
25949;DHT22;13961;51.178;4.448;2022-07-17T00:17:55;16.90;99.90
25949;DHT22;13961;51.178;4.448;2022-07-17T00:20:21;16.90;99.90
25949;DHT22;13961;51.178;4.448;2022-07-17T00:22:50;16.90;99.90
25949;DHT22;13961;51.178;4.448;2022-07-17T00:25:16;16.80;99.90
25949;DHT22;13961;51.178;4.448;2022-07-17T00:27:42;16.90;99.90
25949;DHT22;13961;51.178;4.448;2022-07-17T00:30:07;16.90;99.90
25949;DHT22;13961;51.178;4.448;2022-07-17T00:32:33;16.90;99.90
25949;DHT22;13961;51.178;4.448;2022-07-17T00:34:59;16.90;99.90
25949;DHT22;13961;51.178;4.448;2022-07-17T00:37:25;16.80;99.90
25949;DHT22;13961;51.178;4.448;2022-07-17T00:39:50;16.80;99.90
25949;DHT22;13961;51.178;4.448;2022-07-17T00:42:17;16.80;99.90
25949;DHT22;13961;51.178;4.448;2022-07-17T00:44:43;16.80;99.90
25949;DHT22;13961;51.178;4.448;2022-07-17T00:47:14;16.70;99.90
25949;DHT22;13961;51.178;4.448;2022-07-17T00:49:40;16.80;99.90
25949;DHT22;13961;51.178;4.448;2022-07-17T00:52:07;16.80;99.90
25949;DHT22;13961;51.178;4.448;2022-07-17T00:54:38;16.70;99.90
25949;DHT22;13961;51.178;4.448;2022-07-17T00:57:07;16.60;99.90
25949;DHT22;13961;51.178;4.448;2022-07-17T00:59:33;16.60;99.90
25949;DHT22;13961;51.178;4.448;2022-07-17T01:02:07;16.60;99.90
25949;DHT22;13961;51.178;4.448;2022-07-17T01:04:33;16.60;99.90
25949;DHT22;13961;51.178;4.448;2022-07-17T01:06:59;16.60;99.90
25949;DHT22;13961;51.178;4.448;2022-07-17T01:09:27;16.60;99.90
25949;DHT22;13961;51.178;4.448;2022-07-17T01:11:53;16.60;99.90
25949;DHT22;13961;51.178;4.448;2022-07-17T01:14:19;16.70;99.90
25949;DHT22;13961;51.178;4.448;2022-07-17T01:16:46;16.60;99.90
25949;DHT22;13961;51.178;4.448;2022-07-17T01:19:12;16.40;99.90
25949;DHT22;13961;51.178;4.448;2022-07-17T01:21:48;16.30;99.90
25949;DHT22;13961;51.178;4.448;2022-07-17T01:24:15;16.20;99.90
25949;DHT22;13961;51.178;4.448;2022-07-17T01:26:43;16.20;99.90
25949;DHT22;13961;51.178;4.448;2022-07-17T01:29:11;16.10;99.90
25949;DHT22;13961;51.178;4.448;2022-07-17T01:31:38;16.10;99.90
25949;DHT22;13961;51.178;4.448;2022-07-17T01:34:06;16.10;99.90
25949;DHT22;13961;51.178;4.448;2022-07-17T01:36:33;16.10;99.90
25949;DHT22;13961;51.178;4.448;2022-07-17T01:38:58;16.10;99.90
25949;DHT22;13961;51.178;4.448;2022-07-17T01:41:24;16.10;99.90
25949;DHT22;13961;51.178;4.448;2022-07-17T01:43:50;16.00;99.90
25949;DHT22;13961;51.178;4.448;2022-07-17T01:46:15;16.00;99.90
25949;DHT22;13961;51.178;4.448;2022-07-17T01:48:41;16.00;99.90
25949;DHT22;13961;51.178;4.448;2022-07-17T01:51:07;15.90;99.90
25949;DHT22;13961;51.178;4.448;2022-07-17T01:53:33;16.10;99.90
25949;DHT22;13961;51.178;4.448;2022-07-17T01:55:59;16.10;99.90
25949;DHT22;13961;51.178;4.448;2022-07-17T01:58:24;16.00;99.90
25949;DHT22;13961;51.178;4.448;2022-07-17T02:00:50;16.00;99.90
25949;DHT22;13961;51.178;4.448;2022-07-17T02:03:16;15.90;99.90
25949;DHT22;13961;51.178;4.448;2022-07-17T02:05:42;15.90;99.90
25949;DHT22;13961;51.178;4.448;2022-07-17T02:08:08;15.90;99.90
25949;DHT22;13961;51.178;4.448;2022-07-17T02:10:34;15.70;99.90
25949;DHT22;13961;51.178;4.448;2022-07-17T02:12:59;15.80;99.90
25949;DHT22;13961;51.178;4.448;2022-07-17T02:15:25;15.80;99.90
25949;DHT22;13961;51.178;4.448;2022-07-17T02:17:51;15.80;99.90
25949;DHT22;13961;51.178;4.448;2022-07-17T02:20:17;16.00;99.90
25949;DHT22;13961;51.178;4.448;2022-07-17T02:22:43;15.80;99.90
25949;DHT22;13961;51.178;4.448;2022-07-17T02:25:10;15.70;99.90
25949;DHT22;13961;51.178;4.448;2022-07-17T02:27:37;15.70;99.90
25949;DHT22;13961;51.178;4.448;2022-07-17T02:30:10;15.70;99.90
25949;DHT22;13961;51.178;4.448;2022-07-17T02:32:36;15.60;99.90
25949;DHT22;13961;51.178;4.448;2022-07-17T02:35:02;15.60;99.90
25949;DHT22;13961;51.178;4.448;2022-07-17T02:37:28;15.80;99.90
25949;DHT22;13961;51.178;4.448;2022-07-17T02:39:54;15.60;99.90
25949;DHT22;13961;51.178;4.448;2022-07-17T02:42:24;15.60;99.90
25949;DHT22;13961;51.178;4.448;2022-07-17T02:44:51;15.50;99.90
25949;DHT22;13961;51.178;4.448;2022-07-17T02:47:32;15.50;99.90
25949;DHT22;13961;51.178;4.448;2022-07-17T02:49:59;15.70;99.90
25949;DHT22;13961;51.178;4.448;2022-07-17T02:52:27;15.50;99.90
25949;DHT22;13961;51.178;4.448;2022-07-17T02:54:52;15.50;99.90
25949;DHT22;13961;51.178;4.448;2022-07-17T02:57:18;15.50;99.90
25949;DHT22;13961;51.178;4.448;2022-07-17T02:59:45;15.50;99.90
25949;DHT22;13961;51.178;4.448;2022-07-17T03:02:10;15.40;99.90
25949;DHT22;13961;51.178;4.448;2022-07-17T03:04:36;15.40;99.90
25949;DHT22;13961;51.178;4.448;2022-07-17T03:07:02;15.60;99.90
25949;DHT22;13961;51.178;4.448;2022-07-17T03:09:28;15.40;99.90
25949;DHT22;13961;51.178;4.448;2022-07-17T03:11:53;15.40;99.90
25949;DHT22;13961;51.178;4.448;2022-07-17T03:14:19;15.40;99.90
25949;DHT22;13961;51.178;4.448;2022-07-17T03:16:44;15.40;99.90
25949;DHT22;13961;51.178;4.448;2022-07-17T03:19:10;15.40;99.90
25949;DHT22;13961;51.178;4.448;2022-07-17T03:21:35;15.30;99.90
25949;DHT22;13961;51.178;4.448;2022-07-17T03:24:01;15.20;99.90
25949;DHT22;13961;51.178;4.448;2022-07-17T03:26:27;15.20;99.90
25949;DHT22;13961;51.178;4.448;2022-07-17T03:28:52;15.20;99.90
25949;DHT22;13961;51.178;4.448;2022-07-17T03:31:18;15.10;99.90
25949;DHT22;13961;51.178;4.448;2022-07-17T03:33:44;15.10;99.90
25949;DHT22;13961;51.178;4.448;2022-07-17T03:36:09;15.00;99.90
25949;DHT22;13961;51.178;4.448;2022-07-17T03:38:35;14.90;99.90
25949;DHT22;13961;51.178;4.448;2022-07-17T03:41:00;15.00;99.90
25949;DHT22;13961;51.178;4.448;2022-07-17T03:43:26;14.90;99.90
25949;DHT22;13961;51.178;4.448;2022-07-17T03:45:52;14.90;99.90
25949;DHT22;13961;51.178;4.448;2022-07-17T03:48:17;14.90;99.90
25949;DHT22;13961;51.178;4.448;2022-07-17T03:50:43;14.90;99.90
25949;DHT22;13961;51.178;4.448;2022-07-17T03:53:09;14.90;99.90
25949;DHT22;13961;51.178;4.448;2022-07-17T03:55:35;14.90;99.90
25949;DHT22;13961;51.178;4.448;2022-07-17T03:58:00;15.00;99.90
25949;DHT22;13961;51.178;4.448;2022-07-17T04:00:26;15.00;99.90
25949;DHT22;13961;51.178;4.448;2022-07-17T04:02:52;15.00;99.90
25949;DHT22;13961;51.178;4.448;2022-07-17T04:05:18;15.00;99.90
25949;DHT22;13961;51.178;4.448;2022-07-17T04:07:44;15.20;99.90
25949;DHT22;13961;51.178;4.448;2022-07-17T04:10:11;15.10;99.90
25949;DHT22;13961;51.178;4.448;2022-07-17T04:12:37;15.00;99.90
25949;DHT22;13961;51.178;4.448;2022-07-17T04:15:04;15.10;99.90
25949;DHT22;13961;51.178;4.448;2022-07-17T04:17:30;15.10;99.90
25949;DHT22;13961;51.178;4.448;2022-07-17T04:19:56;15.10;99.90
25949;DHT22;13961;51.178;4.448;2022-07-17T04:22:21;15.10;99.90
25949;DHT22;13961;51.178;4.448;2022-07-17T04:24:47;15.10;99.90
25949;DHT22;13961;51.178;4.448;2022-07-17T04:27:13;15.10;99.90
25949;DHT22;13961;51.178;4.448;2022-07-17T04:29:39;15.10;99.90
25949;DHT22;13961;51.178;4.448;2022-07-17T04:32:05;15.10;99.90
25949;DHT22;13961;51.178;4.448;2022-07-17T04:34:32;15.20;99.90
25949;DHT22;13961;51.178;4.448;2022-07-17T04:36:58;15.30;99.90
25949;DHT22;13961;51.178;4.448;2022-07-17T04:39:24;15.30;99.90
25949;DHT22;13961;51.178;4.448;2022-07-17T04:41:50;15.20;99.90
25949;DHT22;13961;51.178;4.448;2022-07-17T04:44:16;15.30;99.90
25949;DHT22;13961;51.178;4.448;2022-07-17T04:46:42;15.20;99.90
25949;DHT22;13961;51.178;4.448;2022-07-17T04:49:07;15.10;99.90
25949;DHT22;13961;51.178;4.448;2022-07-17T04:51:33;15.10;99.90
25949;DHT22;13961;51.178;4.448;2022-07-17T04:53:59;15.20;99.90
25949;DHT22;13961;51.178;4.448;2022-07-17T04:56:25;15.30;99.90
25949;DHT22;13961;51.178;4.448;2022-07-17T04:58:50;15.30;99.90
25949;DHT22;13961;51.178;4.448;2022-07-17T05:01:16;15.30;99.90
25949;DHT22;13961;51.178;4.448;2022-07-17T05:03:42;15.40;99.90
25949;DHT22;13961;51.178;4.448;2022-07-17T05:06:08;15.40;99.90
25949;DHT22;13961;51.178;4.448;2022-07-17T05:08:35;15.60;99.90
25949;DHT22;13961;51.178;4.448;2022-07-17T05:11:00;15.60;99.90
25949;DHT22;13961;51.178;4.448;2022-07-17T05:13:26;15.60;99.90
25949;DHT22;13961;51.178;4.448;2022-07-17T05:15:52;15.60;99.90
25949;DHT22;13961;51.178;4.448;2022-07-17T05:18:17;15.30;99.90
25949;DHT22;13961;51.178;4.448;2022-07-17T05:20:43;15.10;99.90
25949;DHT22;13961;51.178;4.448;2022-07-17T05:23:09;15.10;99.90
25949;DHT22;13961;51.178;4.448;2022-07-17T05:25:34;15.40;99.90
25949;DHT22;13961;51.178;4.448;2022-07-17T05:28:00;15.10;99.90
25949;DHT22;13961;51.178;4.448;2022-07-17T05:30:27;14.90;99.90
25949;DHT22;13961;51.178;4.448;2022-07-17T05:32:53;15.10;99.90
25949;DHT22;13961;51.178;4.448;2022-07-17T05:35:19;15.70;99.90
25949;DHT22;13961;51.178;4.448;2022-07-17T05:37:44;15.80;99.90
25949;DHT22;13961;51.178;4.448;2022-07-17T05:40:10;16.00;99.90
25949;DHT22;13961;51.178;4.448;2022-07-17T05:42:36;16.00;99.90
25949;DHT22;13961;51.178;4.448;2022-07-17T05:45:03;15.70;99.90
25949;DHT22;13961;51.178;4.448;2022-07-17T05:47:29;15.70;99.90
25949;DHT22;13961;51.178;4.448;2022-07-17T05:49:54;15.70;99.90
25949;DHT22;13961;51.178;4.448;2022-07-17T05:52:20;15.90;99.90
25949;DHT22;13961;51.178;4.448;2022-07-17T05:54:46;15.90;99.90
25949;DHT22;13961;51.178;4.448;2022-07-17T05:57:11;15.90;99.90
25949;DHT22;13961;51.178;4.448;2022-07-17T05:59:37;15.90;99.90
25949;DHT22;13961;51.178;4.448;2022-07-17T06:02:02;16.00;99.90
25949;DHT22;13961;51.178;4.448;2022-07-17T06:04:28;16.20;99.90
25949;DHT22;13961;51.178;4.448;2022-07-17T06:06:53;15.90;99.90
25949;DHT22;13961;51.178;4.448;2022-07-17T06:09:19;16.00;99.90
25949;DHT22;13961;51.178;4.448;2022-07-17T06:11:45;16.10;99.90
25949;DHT22;13961;51.178;4.448;2022-07-17T06:14:10;16.30;99.90
25949;DHT22;13961;51.178;4.448;2022-07-17T06:16:36;16.50;99.90
25949;DHT22;13961;51.178;4.448;2022-07-17T06:19:01;16.60;99.90
25949;DHT22;13961;51.178;4.448;2022-07-17T06:21:27;16.80;99.90
25949;DHT22;13961;51.178;4.448;2022-07-17T06:23:52;16.90;99.90
25949;DHT22;13961;51.178;4.448;2022-07-17T06:26:18;17.10;99.90
25949;DHT22;13961;51.178;4.448;2022-07-17T06:28:44;17.00;99.90
25949;DHT22;13961;51.178;4.448;2022-07-17T06:31:10;17.10;99.90
25949;DHT22;13961;51.178;4.448;2022-07-17T06:33:36;17.30;99.90
25949;DHT22;13961;51.178;4.448;2022-07-17T06:36:02;17.50;99.90
25949;DHT22;13961;51.178;4.448;2022-07-17T06:38:29;17.60;99.90
25949;DHT22;13961;51.178;4.448;2022-07-17T06:40:55;17.90;99.90
25949;DHT22;13961;51.178;4.448;2022-07-17T06:43:20;19.30;99.90
25949;DHT22;13961;51.178;4.448;2022-07-17T06:45:46;21.90;99.90
25949;DHT22;13961;51.178;4.448;2022-07-17T06:48:12;24.00;99.90
25949;DHT22;13961;51.178;4.448;2022-07-17T06:50:37;25.10;99.90
25949;DHT22;13961;51.178;4.448;2022-07-17T06:53:03;24.80;98.60
25949;DHT22;13961;51.178;4.448;2022-07-17T06:55:29;24.80;99.10
25949;DHT22;13961;51.178;4.448;2022-07-17T06:57:55;26.30;97.40
25949;DHT22;13961;51.178;4.448;2022-07-17T07:00:20;27.40;95.50
25949;DHT22;13961;51.178;4.448;2022-07-17T07:02:46;27.90;94.80
25949;DHT22;13961;51.178;4.448;2022-07-17T07:05:12;29.70;92.50
25949;DHT22;13961;51.178;4.448;2022-07-17T07:07:37;29.80;91.30
25949;DHT22;13961;51.178;4.448;2022-07-17T07:10:03;27.40;93.40
25949;DHT22;13961;51.178;4.448;2022-07-17T07:12:29;28.60;92.60
25949;DHT22;13961;51.178;4.448;2022-07-17T07:14:56;29.50;91.30
25949;DHT22;13961;51.178;4.448;2022-07-17T07:17:21;30.70;89.70
25949;DHT22;13961;51.178;4.448;2022-07-17T07:19:47;30.10;90.30
25949;DHT22;13961;51.178;4.448;2022-07-17T07:22:13;29.80;90.00
25949;DHT22;13961;51.178;4.448;2022-07-17T07:24:38;30.80;87.60
25949;DHT22;13961;51.178;4.448;2022-07-17T07:27:04;31.50;86.30
25949;DHT22;13961;51.178;4.448;2022-07-17T07:29:30;30.30;86.50
25949;DHT22;13961;51.178;4.448;2022-07-17T07:31:55;28.70;89.80
25949;DHT22;13961;51.178;4.448;2022-07-17T07:34:21;29.20;87.70
25949;DHT22;13961;51.178;4.448;2022-07-17T07:36:46;29.30;87.50
25949;DHT22;13961;51.178;4.448;2022-07-17T07:39:12;30.10;88.20
25949;DHT22;13961;51.178;4.448;2022-07-17T07:41:38;31.10;83.60
25949;DHT22;13961;51.178;4.448;2022-07-17T07:44:04;32.10;81.60
25949;DHT22;13961;51.178;4.448;2022-07-17T07:46:29;31.70;81.90
25949;DHT22;13961;51.178;4.448;2022-07-17T07:48:55;31.80;81.80
25949;DHT22;13961;51.178;4.448;2022-07-17T07:51:20;31.50;81.80
25949;DHT22;13961;51.178;4.448;2022-07-17T07:53:46;32.40;80.60
25949;DHT22;13961;51.178;4.448;2022-07-17T07:56:13;31.70;81.00
25949;DHT22;13961;51.178;4.448;2022-07-17T07:58:38;32.30;80.80
25949;DHT22;13961;51.178;4.448;2022-07-17T08:01:04;30.40;82.20
25949;DHT22;13961;51.178;4.448;2022-07-17T08:03:30;30.80;83.30
25949;DHT22;13961;51.178;4.448;2022-07-17T08:05:56;28.50;85.70
25949;DHT22;13961;51.178;4.448;2022-07-17T08:08:21;28.20;88.70
25949;DHT22;13961;51.178;4.448;2022-07-17T08:10:47;27.70;88.30
25949;DHT22;13961;51.178;4.448;2022-07-17T08:13:13;29.00;86.50
25949;DHT22;13961;51.178;4.448;2022-07-17T08:15:39;29.80;85.30
25949;DHT22;13961;51.178;4.448;2022-07-17T08:18:04;29.40;85.20
25949;DHT22;13961;51.178;4.448;2022-07-17T08:20:30;31.30;82.80
25949;DHT22;13961;51.178;4.448;2022-07-17T08:22:56;31.70;79.80
25949;DHT22;13961;51.178;4.448;2022-07-17T08:25:21;31.00;82.00
25949;DHT22;13961;51.178;4.448;2022-07-17T08:27:47;32.20;81.50
25949;DHT22;13961;51.178;4.448;2022-07-17T08:30:13;32.20;77.90
25949;DHT22;13961;51.178;4.448;2022-07-17T08:32:39;31.90;79.20
25949;DHT22;13961;51.178;4.448;2022-07-17T08:35:06;29.60;82.30
25949;DHT22;13961;51.178;4.448;2022-07-17T08:37:46;27.70;87.20
25949;DHT22;13961;51.178;4.448;2022-07-17T08:40:23;29.30;85.70
25949;DHT22;13961;51.178;4.448;2022-07-17T08:42:51;30.20;83.30
25949;DHT22;13961;51.178;4.448;2022-07-17T08:45:17;28.60;86.00
25949;DHT22;13961;51.178;4.448;2022-07-17T08:47:43;30.20;82.70
25949;DHT22;13961;51.178;4.448;2022-07-17T08:50:10;30.90;81.00
25949;DHT22;13961;51.178;4.448;2022-07-17T08:52:37;31.70;79.50
25949;DHT22;13961;51.178;4.448;2022-07-17T08:55:04;30.80;79.90
25949;DHT22;13961;51.178;4.448;2022-07-17T08:57:33;28.80;83.30
25949;DHT22;13961;51.178;4.448;2022-07-17T08:59:58;29.60;82.70
25949;DHT22;13961;51.178;4.448;2022-07-17T09:02:25;29.90;82.10
25949;DHT22;13961;51.178;4.448;2022-07-17T09:04:54;29.00;82.20
25949;DHT22;13961;51.178;4.448;2022-07-17T09:07:20;29.10;85.10
25949;DHT22;13961;51.178;4.448;2022-07-17T09:09:52;28.40;84.00
25949;DHT22;13961;51.178;4.448;2022-07-17T09:12:26;27.90;86.40
25949;DHT22;13961;51.178;4.448;2022-07-17T09:14:52;28.10;84.60
25949;DHT22;13961;51.178;4.448;2022-07-17T09:17:18;26.70;89.00
25949;DHT22;13961;51.178;4.448;2022-07-17T09:19:44;26.20;90.70
25949;DHT22;13961;51.178;4.448;2022-07-17T09:22:22;27.00;88.50
25949;DHT22;13961;51.178;4.448;2022-07-17T09:24:56;27.80;88.20
25949;DHT22;13961;51.178;4.448;2022-07-17T09:29:55;28.50;85.50
25949;DHT22;13961;51.178;4.448;2022-07-17T09:32:24;29.50;83.20
25949;DHT22;13961;51.178;4.448;2022-07-17T09:34:51;30.00;83.00
25949;DHT22;13961;51.178;4.448;2022-07-17T09:37:17;30.00;81.30
25949;DHT22;13961;51.178;4.448;2022-07-17T09:39:43;29.10;84.00
25949;DHT22;13961;51.178;4.448;2022-07-17T09:42:11;27.60;85.90
25949;DHT22;13961;51.178;4.448;2022-07-17T09:44:55;25.90;89.70
25949;DHT22;13961;51.178;4.448;2022-07-17T09:47:22;24.70;91.30
25949;DHT22;13961;51.178;4.448;2022-07-17T09:49:48;24.80;91.20
25949;DHT22;13961;51.178;4.448;2022-07-17T09:52:15;25.10;91.20
25949;DHT22;13961;51.178;4.448;2022-07-17T09:54:41;24.90;90.90
25949;DHT22;13961;51.178;4.448;2022-07-17T09:57:06;24.40;91.50
25949;DHT22;13961;51.178;4.448;2022-07-17T09:59:35;24.40;92.30
25949;DHT22;13961;51.178;4.448;2022-07-17T10:02:01;24.60;92.00
25949;DHT22;13961;51.178;4.448;2022-07-17T10:04:27;25.00;91.80
25949;DHT22;13961;51.178;4.448;2022-07-17T10:06:53;25.00;91.50
25949;DHT22;13961;51.178;4.448;2022-07-17T10:09:20;24.50;92.20
25949;DHT22;13961;51.178;4.448;2022-07-17T10:11:46;24.60;91.90
25949;DHT22;13961;51.178;4.448;2022-07-17T10:14:13;24.70;92.50
25949;DHT22;13961;51.178;4.448;2022-07-17T10:16:39;24.50;92.90
25949;DHT22;13961;51.178;4.448;2022-07-17T10:21:57;24.60;93.00
25949;DHT22;13961;51.178;4.448;2022-07-17T10:24:24;24.50;93.30
25949;DHT22;13961;51.178;4.448;2022-07-17T10:26:50;24.30;93.80
25949;DHT22;13961;51.178;4.448;2022-07-17T10:29:32;24.40;93.90
25949;DHT22;13961;51.178;4.448;2022-07-17T10:31:59;24.50;93.60
25949;DHT22;13961;51.178;4.448;2022-07-17T10:34:46;24.70;93.60
25949;DHT22;13961;51.178;4.448;2022-07-17T10:37:26;25.10;93.00
25949;DHT22;13961;51.178;4.448;2022-07-17T10:40:05;25.20;93.00
25949;DHT22;13961;51.178;4.448;2022-07-17T10:42:45;25.40;93.20
25949;DHT22;13961;51.178;4.448;2022-07-17T10:45:13;25.50;92.40
25949;DHT22;13961;51.178;4.448;2022-07-17T10:47:47;25.40;93.10
25949;DHT22;13961;51.178;4.448;2022-07-17T10:50:14;25.40;93.10
25949;DHT22;13961;51.178;4.448;2022-07-17T10:52:41;24.80;92.90
25949;DHT22;13961;51.178;4.448;2022-07-17T10:55:18;24.70;92.60
25949;DHT22;13961;51.178;4.448;2022-07-17T10:57:45;24.80;93.40
25949;DHT22;13961;51.178;4.448;2022-07-17T11:00:12;25.00;92.80
25949;DHT22;13961;51.178;4.448;2022-07-17T11:02:38;25.00;93.10
25949;DHT22;13961;51.178;4.448;2022-07-17T11:05:08;25.40;92.90
25949;DHT22;13961;51.178;4.448;2022-07-17T11:07:34;25.50;92.60
25949;DHT22;13961;51.178;4.448;2022-07-17T11:10:00;25.40;92.70
25949;DHT22;13961;51.178;4.448;2022-07-17T11:12:32;25.20;92.60
25949;DHT22;13961;51.178;4.448;2022-07-17T11:15:02;25.20;92.50
25949;DHT22;13961;51.178;4.448;2022-07-17T11:17:29;25.10;92.90
25949;DHT22;13961;51.178;4.448;2022-07-17T11:19:54;25.50;92.40
25949;DHT22;13961;51.178;4.448;2022-07-17T11:22:24;26.00;92.50
25949;DHT22;13961;51.178;4.448;2022-07-17T11:24:50;26.30;91.70
25949;DHT22;13961;51.178;4.448;2022-07-17T11:27:30;26.60;91.70
25949;DHT22;13961;51.178;4.448;2022-07-17T11:29:58;26.60;90.80
25949;DHT22;13961;51.178;4.448;2022-07-17T11:32:24;26.30;90.90
25949;DHT22;13961;51.178;4.448;2022-07-17T11:34:50;26.10;90.10
25949;DHT22;13961;51.178;4.448;2022-07-17T11:37:16;25.50;90.70
25949;DHT22;13961;51.178;4.448;2022-07-17T11:39:47;25.20;91.00
25949;DHT22;13961;51.178;4.448;2022-07-17T11:42:14;25.30;90.90
25949;DHT22;13961;51.178;4.448;2022-07-17T11:44:41;25.70;91.70
25949;DHT22;13961;51.178;4.448;2022-07-17T11:47:09;25.80;90.30
25949;DHT22;13961;51.178;4.448;2022-07-17T11:49:39;25.70;90.30
25949;DHT22;13961;51.178;4.448;2022-07-17T11:52:11;25.90;90.40
25949;DHT22;13961;51.178;4.448;2022-07-17T11:54:56;25.80;90.10
25949;DHT22;13961;51.178;4.448;2022-07-17T11:57:25;25.80;90.50
25949;DHT22;13961;51.178;4.448;2022-07-17T11:59:51;25.70;90.50
25949;DHT22;13961;51.178;4.448;2022-07-17T12:02:23;25.90;90.90
25949;DHT22;13961;51.178;4.448;2022-07-17T12:04:56;26.10;90.40
25949;DHT22;13961;51.178;4.448;2022-07-17T12:07:24;26.30;90.40
25949;DHT22;13961;51.178;4.448;2022-07-17T12:09:50;26.40;89.80
25949;DHT22;13961;51.178;4.448;2022-07-17T12:12:19;26.30;89.80
25949;DHT22;13961;51.178;4.448;2022-07-17T12:14:56;26.20;88.90
25949;DHT22;13961;51.178;4.448;2022-07-17T12:17:39;26.60;90.10
25949;DHT22;13961;51.178;4.448;2022-07-17T12:20:07;26.70;90.00
25949;DHT22;13961;51.178;4.448;2022-07-17T12:22:47;27.00;87.90
25949;DHT22;13961;51.178;4.448;2022-07-17T12:25:27;27.00;87.40
25949;DHT22;13961;51.178;4.448;2022-07-17T12:27:53;26.80;88.30
25949;DHT22;13961;51.178;4.448;2022-07-17T12:30:19;27.00;86.90
25949;DHT22;13961;51.178;4.448;2022-07-17T12:32:46;27.30;87.20
25949;DHT22;13961;51.178;4.448;2022-07-17T12:35:15;27.50;85.40
25949;DHT22;13961;51.178;4.448;2022-07-17T12:37:41;27.80;83.60
25949;DHT22;13961;51.178;4.448;2022-07-17T12:40:07;27.50;84.50
25949;DHT22;13961;51.178;4.448;2022-07-17T12:42:33;27.20;83.40
25949;DHT22;13961;51.178;4.448;2022-07-17T12:44:59;27.00;84.10
25949;DHT22;13961;51.178;4.448;2022-07-17T12:47:25;26.60;84.90
25949;DHT22;13961;51.178;4.448;2022-07-17T12:49:50;26.60;84.80
25949;DHT22;13961;51.178;4.448;2022-07-17T12:52:16;26.60;84.30
25949;DHT22;13961;51.178;4.448;2022-07-17T12:54:41;26.40;84.40
25949;DHT22;13961;51.178;4.448;2022-07-17T12:57:07;26.70;85.10
25949;DHT22;13961;51.178;4.448;2022-07-17T12:59:33;26.80;84.40
25949;DHT22;13961;51.178;4.448;2022-07-17T13:01:59;26.80;83.90
25949;DHT22;13961;51.178;4.448;2022-07-17T13:04:25;27.00;83.30
25949;DHT22;13961;51.178;4.448;2022-07-17T13:06:51;26.80;84.90
25949;DHT22;13961;51.178;4.448;2022-07-17T13:09:16;27.20;81.40
25949;DHT22;13961;51.178;4.448;2022-07-17T13:11:43;27.40;79.90
25949;DHT22;13961;51.178;4.448;2022-07-17T13:14:09;27.60;80.80
25949;DHT22;13961;51.178;4.448;2022-07-17T13:16:39;27.80;80.10
25949;DHT22;13961;51.178;4.448;2022-07-17T13:19:05;27.90;80.70
25949;DHT22;13961;51.178;4.448;2022-07-17T13:21:31;28.00;82.50
25949;DHT22;13961;51.178;4.448;2022-07-17T13:23:57;27.80;83.20
25949;DHT22;13961;51.178;4.448;2022-07-17T13:26:22;27.60;83.10
25949;DHT22;13961;51.178;4.448;2022-07-17T13:28:48;27.20;84.10
25949;DHT22;13961;51.178;4.448;2022-07-17T13:31:14;27.10;85.70
25949;DHT22;13961;51.178;4.448;2022-07-17T13:33:40;27.10;85.80
25949;DHT22;13961;51.178;4.448;2022-07-17T13:36:06;27.30;83.00
25949;DHT22;13961;51.178;4.448;2022-07-17T13:38:31;27.40;83.90
25949;DHT22;13961;51.178;4.448;2022-07-17T13:40:57;27.10;79.80
25949;DHT22;13961;51.178;4.448;2022-07-17T13:43:23;27.10;80.70
25949;DHT22;13961;51.178;4.448;2022-07-17T13:45:49;27.10;79.50
25949;DHT22;13961;51.178;4.448;2022-07-17T13:48:14;27.50;80.20
25949;DHT22;13961;51.178;4.448;2022-07-17T13:50:41;27.70;80.30
25949;DHT22;13961;51.178;4.448;2022-07-17T13:53:07;27.60;77.60
25949;DHT22;13961;51.178;4.448;2022-07-17T13:55:33;27.30;79.70
25949;DHT22;13961;51.178;4.448;2022-07-17T13:57:59;27.40;82.10
25949;DHT22;13961;51.178;4.448;2022-07-17T14:00:25;27.70;78.80
25949;DHT22;13961;51.178;4.448;2022-07-17T14:02:50;27.60;80.20
25949;DHT22;13961;51.178;4.448;2022-07-17T14:05:16;27.70;80.90
25949;DHT22;13961;51.178;4.448;2022-07-17T14:07:42;27.60;80.10
25949;DHT22;13961;51.178;4.448;2022-07-17T14:10:08;27.40;80.70
25949;DHT22;13961;51.178;4.448;2022-07-17T14:12:35;27.40;83.00
25949;DHT22;13961;51.178;4.448;2022-07-17T14:15:02;27.70;80.40
25949;DHT22;13961;51.178;4.448;2022-07-17T14:17:27;27.60;81.00
25949;DHT22;13961;51.178;4.448;2022-07-17T14:19:53;28.10;78.70
25949;DHT22;13961;51.178;4.448;2022-07-17T14:22:20;28.00;78.20
25949;DHT22;13961;51.178;4.448;2022-07-17T14:24:45;28.00;77.50
25949;DHT22;13961;51.178;4.448;2022-07-17T14:27:11;27.70;76.90
25949;DHT22;13961;51.178;4.448;2022-07-17T14:29:37;28.00;78.80
25949;DHT22;13961;51.178;4.448;2022-07-17T14:32:02;28.10;78.40
25949;DHT22;13961;51.178;4.448;2022-07-17T14:34:28;28.40;77.00
25949;DHT22;13961;51.178;4.448;2022-07-17T14:36:54;27.90;77.90
25949;DHT22;13961;51.178;4.448;2022-07-17T14:39:19;28.10;78.60
25949;DHT22;13961;51.178;4.448;2022-07-17T14:41:45;28.20;77.50
25949;DHT22;13961;51.178;4.448;2022-07-17T14:44:11;27.90;77.30
25949;DHT22;13961;51.178;4.448;2022-07-17T14:46:37;28.00;77.60
25949;DHT22;13961;51.178;4.448;2022-07-17T14:49:02;28.20;79.20
25949;DHT22;13961;51.178;4.448;2022-07-17T14:51:28;28.30;77.70
25949;DHT22;13961;51.178;4.448;2022-07-17T14:53:54;27.90;78.30
25949;DHT22;13961;51.178;4.448;2022-07-17T14:56:19;28.00;77.00
25949;DHT22;13961;51.178;4.448;2022-07-17T14:58:45;28.10;76.80
25949;DHT22;13961;51.178;4.448;2022-07-17T15:01:11;28.10;77.30
25949;DHT22;13961;51.178;4.448;2022-07-17T15:03:36;28.00;76.00
25949;DHT22;13961;51.178;4.448;2022-07-17T15:06:02;28.00;76.20
25949;DHT22;13961;51.178;4.448;2022-07-17T15:08:28;28.10;77.20
25949;DHT22;13961;51.178;4.448;2022-07-17T15:10:54;28.10;78.10
25949;DHT22;13961;51.178;4.448;2022-07-17T15:13:20;28.00;76.60
25949;DHT22;13961;51.178;4.448;2022-07-17T15:15:45;28.30;75.30
25949;DHT22;13961;51.178;4.448;2022-07-17T15:18:11;28.70;74.20
25949;DHT22;13961;51.178;4.448;2022-07-17T15:20:37;28.90;72.80
25949;DHT22;13961;51.178;4.448;2022-07-17T15:23:03;28.70;75.20
25949;DHT22;13961;51.178;4.448;2022-07-17T15:25:28;28.40;77.50
25949;DHT22;13961;51.178;4.448;2022-07-17T15:27:54;28.50;78.60
25949;DHT22;13961;51.178;4.448;2022-07-17T15:30:20;28.60;76.60
25949;DHT22;13961;51.178;4.448;2022-07-17T15:32:46;28.40;77.60